sensor_id;sensor_type;location;lat;lon;timestamp;P1;durP1;ratioP1;P2;durP2;ratioP2
80557;SDS011;69901;43.524;-5.636;2024-03-06T00:01:43;15.53;;;14.27;;
80557;SDS011;69901;43.524;-5.636;2024-03-06T00:04:09;15.30;;;14.10;;
80557;SDS011;69901;43.524;-5.636;2024-03-06T00:06:34;15.17;;;13.87;;
80557;SDS011;69901;43.524;-5.636;2024-03-06T00:09:00;15.10;;;13.90;;
80557;SDS011;69901;43.524;-5.636;2024-03-06T00:11:27;16.27;;;14.90;;
80557;SDS011;69901;43.524;-5.636;2024-03-06T00:13:53;16.27;;;14.98;;
80557;SDS011;69901;43.524;-5.636;2024-03-06T00:16:19;15.47;;;14.17;;
80557;SDS011;69901;43.524;-5.636;2024-03-06T00:18:45;15.65;;;14.45;;
80557;SDS011;69901;43.524;-5.636;2024-03-06T00:21:10;15.30;;;14.10;;
80557;SDS011;69901;43.524;-5.636;2024-03-06T00:23:35;15.70;;;14.40;;
80557;SDS011;69901;43.524;-5.636;2024-03-06T00:26:02;15.93;;;14.63;;
80557;SDS011;69901;43.524;-5.636;2024-03-06T00:28:28;15.90;;;14.50;;
80557;SDS011;69901;43.524;-5.636;2024-03-06T00:30:54;16.53;;;15.13;;
80557;SDS011;69901;43.524;-5.636;2024-03-06T00:33:19;16.00;;;14.70;;
80557;SDS011;69901;43.524;-5.636;2024-03-06T00:35:45;15.90;;;14.50;;
80557;SDS011;69901;43.524;-5.636;2024-03-06T00:38:10;16.33;;;14.93;;
80557;SDS011;69901;43.524;-5.636;2024-03-06T00:40:36;16.40;;;15.10;;
80557;SDS011;69901;43.524;-5.636;2024-03-06T00:43:01;16.10;;;14.90;;
80557;SDS011;69901;43.524;-5.636;2024-03-06T00:45:27;16.17;;;14.87;;
80557;SDS011;69901;43.524;-5.636;2024-03-06T00:47:52;16.15;;;14.80;;
80557;SDS011;69901;43.524;-5.636;2024-03-06T00:50:18;16.17;;;14.87;;
80557;SDS011;69901;43.524;-5.636;2024-03-06T00:52:47;15.35;;;14.25;;
80557;SDS011;69901;43.524;-5.636;2024-03-06T00:55:12;16.07;;;14.77;;
80557;SDS011;69901;43.524;-5.636;2024-03-06T00:57:38;14.40;;;13.20;;
80557;SDS011;69901;43.524;-5.636;2024-03-06T01:00:03;15.90;;;14.50;;
80557;SDS011;69901;43.524;-5.636;2024-03-06T01:02:35;16.05;;;14.75;;
80557;SDS011;69901;43.524;-5.636;2024-03-06T01:05:01;15.98;;;14.80;;
80557;SDS011;69901;43.524;-5.636;2024-03-06T01:07:28;16.33;;;15.02;;
80557;SDS011;69901;43.524;-5.636;2024-03-06T01:09:55;16.55;;;15.15;;
80557;SDS011;69901;43.524;-5.636;2024-03-06T01:12:22;16.80;;;15.50;;
80557;SDS011;69901;43.524;-5.636;2024-03-06T01:14:48;15.88;;;14.68;;
80557;SDS011;69901;43.524;-5.636;2024-03-06T01:17:14;16.05;;;14.75;;
80557;SDS011;69901;43.524;-5.636;2024-03-06T01:19:40;15.83;;;14.63;;
80557;SDS011;69901;43.524;-5.636;2024-03-06T01:22:05;15.90;;;14.60;;
80557;SDS011;69901;43.524;-5.636;2024-03-06T01:24:31;16.92;;;15.60;;
80557;SDS011;69901;43.524;-5.636;2024-03-06T01:26:57;15.95;;;14.65;;
80557;SDS011;69901;43.524;-5.636;2024-03-06T01:29:24;15.82;;;14.60;;
80557;SDS011;69901;43.524;-5.636;2024-03-06T01:31:49;15.23;;;14.07;;
80557;SDS011;69901;43.524;-5.636;2024-03-06T01:34:15;15.83;;;14.63;;
80557;SDS011;69901;43.524;-5.636;2024-03-06T01:36:40;16.42;;;15.20;;
80557;SDS011;69901;43.524;-5.636;2024-03-06T01:39:06;16.33;;;15.03;;
80557;SDS011;69901;43.524;-5.636;2024-03-06T01:41:31;16.20;;;14.90;;
80557;SDS011;69901;43.524;-5.636;2024-03-06T01:43:57;15.95;;;14.70;;
80557;SDS011;69901;43.524;-5.636;2024-03-06T01:46:22;16.13;;;14.93;;
80557;SDS011;69901;43.524;-5.636;2024-03-06T01:48:48;15.87;;;14.67;;
80557;SDS011;69901;43.524;-5.636;2024-03-06T01:51:13;16.38;;;15.18;;
80557;SDS011;69901;43.524;-5.636;2024-03-06T01:53:39;16.30;;;15.10;;
80557;SDS011;69901;43.524;-5.636;2024-03-06T01:56:05;16.07;;;14.87;;
80557;SDS011;69901;43.524;-5.636;2024-03-06T01:58:30;15.60;;;14.40;;
80557;SDS011;69901;43.524;-5.636;2024-03-06T02:00:58;16.10;;;14.90;;
80557;SDS011;69901;43.524;-5.636;2024-03-06T02:03:25;16.55;;;15.35;;
80557;SDS011;69901;43.524;-5.636;2024-03-06T02:05:51;15.77;;;14.57;;
80557;SDS011;69901;43.524;-5.636;2024-03-06T02:08:18;16.17;;;14.88;;
80557;SDS011;69901;43.524;-5.636;2024-03-06T02:10:44;16.17;;;14.90;;
80557;SDS011;69901;43.524;-5.636;2024-03-06T02:13:12;15.48;;;14.27;;
80557;SDS011;69901;43.524;-5.636;2024-03-06T02:15:38;15.70;;;14.50;;
80557;SDS011;69901;43.524;-5.636;2024-03-06T02:18:04;15.33;;;14.23;;
80557;SDS011;69901;43.524;-5.636;2024-03-06T02:20:31;16.40;;;15.10;;
80557;SDS011;69901;43.524;-5.636;2024-03-06T02:22:56;15.57;;;14.37;;
80557;SDS011;69901;43.524;-5.636;2024-03-06T02:25:22;15.87;;;14.67;;
80557;SDS011;69901;43.524;-5.636;2024-03-06T02:27:47;15.80;;;14.60;;
80557;SDS011;69901;43.524;-5.636;2024-03-06T02:30:19;16.15;;;14.85;;
80557;SDS011;69901;43.524;-5.636;2024-03-06T02:32:45;16.13;;;14.83;;
80557;SDS011;69901;43.524;-5.636;2024-03-06T02:35:11;15.98;;;14.77;;
80557;SDS011;69901;43.524;-5.636;2024-03-06T02:37:37;15.37;;;14.27;;
80557;SDS011;69901;43.524;-5.636;2024-03-06T02:40:03;16.27;;;15.02;;
80557;SDS011;69901;43.524;-5.636;2024-03-06T02:42:32;16.33;;;15.02;;
80557;SDS011;69901;43.524;-5.636;2024-03-06T02:44:58;15.35;;;14.15;;
80557;SDS011;69901;43.524;-5.636;2024-03-06T02:47:23;15.97;;;14.77;;
80557;SDS011;69901;43.524;-5.636;2024-03-06T02:49:49;16.15;;;14.95;;
80557;SDS011;69901;43.524;-5.636;2024-03-06T02:52:15;16.53;;;15.27;;
80557;SDS011;69901;43.524;-5.636;2024-03-06T02:54:40;15.80;;;14.50;;
80557;SDS011;69901;43.524;-5.636;2024-03-06T02:57:07;15.77;;;14.55;;
80557;SDS011;69901;43.524;-5.636;2024-03-06T02:59:33;15.75;;;14.45;;
80557;SDS011;69901;43.524;-5.636;2024-03-06T03:01:58;15.10;;;14.00;;
80557;SDS011;69901;43.524;-5.636;2024-03-06T03:04:25;15.93;;;14.75;;
80557;SDS011;69901;43.524;-5.636;2024-03-06T03:06:51;16.42;;;15.13;;
80557;SDS011;69901;43.524;-5.636;2024-03-06T03:09:17;16.10;;;14.80;;
80557;SDS011;69901;43.524;-5.636;2024-03-06T03:11:42;15.48;;;14.27;;
80557;SDS011;69901;43.524;-5.636;2024-03-06T03:14:11;15.02;;;13.82;;
80557;SDS011;69901;43.524;-5.636;2024-03-06T03:16:36;15.63;;;14.50;;
80557;SDS011;69901;43.524;-5.636;2024-03-06T03:19:02;15.57;;;14.37;;
80557;SDS011;69901;43.524;-5.636;2024-03-06T03:21:28;15.73;;;14.52;;
80557;SDS011;69901;43.524;-5.636;2024-03-06T03:23:53;16.40;;;15.10;;
80557;SDS011;69901;43.524;-5.636;2024-03-06T03:26:19;15.90;;;14.70;;
80557;SDS011;69901;43.524;-5.636;2024-03-06T03:28:44;15.63;;;14.53;;
80557;SDS011;69901;43.524;-5.636;2024-03-06T03:31:10;16.07;;;14.77;;
80557;SDS011;69901;43.524;-5.636;2024-03-06T03:33:36;16.20;;;15.00;;
80557;SDS011;69901;43.524;-5.636;2024-03-06T03:36:05;15.10;;;13.88;;
80557;SDS011;69901;43.524;-5.636;2024-03-06T03:38:32;16.13;;;14.80;;
80557;SDS011;69901;43.524;-5.636;2024-03-06T03:40:58;16.08;;;14.88;;
80557;SDS011;69901;43.524;-5.636;2024-03-06T03:43:23;16.00;;;14.80;;
80557;SDS011;69901;43.524;-5.636;2024-03-06T03:45:49;15.40;;;14.30;;
80557;SDS011;69901;43.524;-5.636;2024-03-06T03:48:16;15.68;;;14.48;;
80557;SDS011;69901;43.524;-5.636;2024-03-06T03:50:41;15.43;;;14.27;;
80557;SDS011;69901;43.524;-5.636;2024-03-06T03:53:06;16.10;;;14.80;;
80557;SDS011;69901;43.524;-5.636;2024-03-06T03:55:32;15.60;;;14.40;;
80557;SDS011;69901;43.524;-5.636;2024-03-06T03:57:58;15.77;;;14.57;;
80557;SDS011;69901;43.524;-5.636;2024-03-06T04:00:24;15.50;;;14.30;;
80557;SDS011;69901;43.524;-5.636;2024-03-06T04:02:49;15.33;;;14.13;;
80557;SDS011;69901;43.524;-5.636;2024-03-06T04:05:15;16.10;;;14.90;;
80557;SDS011;69901;43.524;-5.636;2024-03-06T04:07:40;15.03;;;13.93;;
80557;SDS011;69901;43.524;-5.636;2024-03-06T04:10:06;15.48;;;14.38;;
80557;SDS011;69901;43.524;-5.636;2024-03-06T04:12:32;15.20;;;14.10;;
80557;SDS011;69901;43.524;-5.636;2024-03-06T04:14:57;16.45;;;15.13;;
80557;SDS011;69901;43.524;-5.636;2024-03-06T04:17:23;15.20;;;14.10;;
80557;SDS011;69901;43.524;-5.636;2024-03-06T04:19:50;15.55;;;14.38;;
80557;SDS011;69901;43.524;-5.636;2024-03-06T04:22:18;15.83;;;14.70;;
80557;SDS011;69901;43.524;-5.636;2024-03-06T04:24:44;15.68;;;14.48;;
80557;SDS011;69901;43.524;-5.636;2024-03-06T04:27:09;15.60;;;14.40;;
80557;SDS011;69901;43.524;-5.636;2024-03-06T04:29:35;15.35;;;14.15;;
80557;SDS011;69901;43.524;-5.636;2024-03-06T04:32:01;16.00;;;14.80;;
80557;SDS011;69901;43.524;-5.636;2024-03-06T04:34:26;16.00;;;14.80;;
80557;SDS011;69901;43.524;-5.636;2024-03-06T04:36:52;15.90;;;14.60;;
80557;SDS011;69901;43.524;-5.636;2024-03-06T04:39:17;16.20;;;14.90;;
80557;SDS011;69901;43.524;-5.636;2024-03-06T04:41:43;16.40;;;15.27;;
80557;SDS011;69901;43.524;-5.636;2024-03-06T04:44:08;16.70;;;15.40;;
80557;SDS011;69901;43.524;-5.636;2024-03-06T04:46:34;15.90;;;14.70;;
80557;SDS011;69901;43.524;-5.636;2024-03-06T04:48:59;15.98;;;14.68;;
80557;SDS011;69901;43.524;-5.636;2024-03-06T04:51:25;16.10;;;15.00;;
80557;SDS011;69901;43.524;-5.636;2024-03-06T04:53:50;15.80;;;14.70;;
80557;SDS011;69901;43.524;-5.636;2024-03-06T04:56:16;16.70;;;15.40;;
80557;SDS011;69901;43.524;-5.636;2024-03-06T04:58:44;15.90;;;14.70;;
80557;SDS011;69901;43.524;-5.636;2024-03-06T05:01:10;16.58;;;15.27;;
80557;SDS011;69901;43.524;-5.636;2024-03-06T05:03:36;16.00;;;14.80;;
80557;SDS011;69901;43.524;-5.636;2024-03-06T05:06:03;15.60;;;14.40;;
80557;SDS011;69901;43.524;-5.636;2024-03-06T05:08:30;15.37;;;14.17;;
80557;SDS011;69901;43.524;-5.636;2024-03-06T05:10:56;15.95;;;14.75;;
80557;SDS011;69901;43.524;-5.636;2024-03-06T05:13:21;15.75;;;14.55;;
80557;SDS011;69901;43.524;-5.636;2024-03-06T05:15:48;15.37;;;14.17;;
80557;SDS011;69901;43.524;-5.636;2024-03-06T05:18:13;15.80;;;14.60;;
80557;SDS011;69901;43.524;-5.636;2024-03-06T05:20:39;16.23;;;14.93;;
80557;SDS011;69901;43.524;-5.636;2024-03-06T05:23:04;15.67;;;14.47;;
80557;SDS011;69901;43.524;-5.636;2024-03-06T05:25:30;15.80;;;14.60;;
80557;SDS011;69901;43.524;-5.636;2024-03-06T05:27:56;16.70;;;15.40;;
80557;SDS011;69901;43.524;-5.636;2024-03-06T05:30:22;15.70;;;14.60;;
80557;SDS011;69901;43.524;-5.636;2024-03-06T05:32:47;16.63;;;15.40;;
80557;SDS011;69901;43.524;-5.636;2024-03-06T05:35:13;16.23;;;15.03;;
80557;SDS011;69901;43.524;-5.636;2024-03-06T05:37:38;16.17;;;14.98;;
80557;SDS011;69901;43.524;-5.636;2024-03-06T05:40:04;15.90;;;14.60;;
80557;SDS011;69901;43.524;-5.636;2024-03-06T05:42:30;15.35;;;14.25;;
80557;SDS011;69901;43.524;-5.636;2024-03-06T05:44:59;15.17;;;14.07;;
80557;SDS011;69901;43.524;-5.636;2024-03-06T05:47:31;15.50;;;14.30;;
80557;SDS011;69901;43.524;-5.636;2024-03-06T05:49:57;15.75;;;14.60;;
80557;SDS011;69901;43.524;-5.636;2024-03-06T05:52:22;15.60;;;14.40;;
80557;SDS011;69901;43.524;-5.636;2024-03-06T05:54:48;15.33;;;14.13;;
80557;SDS011;69901;43.524;-5.636;2024-03-06T05:57:13;15.50;;;14.20;;
80557;SDS011;69901;43.524;-5.636;2024-03-06T05:59:40;16.20;;;14.90;;
80557;SDS011;69901;43.524;-5.636;2024-03-06T06:02:05;15.50;;;14.30;;
80557;SDS011;69901;43.524;-5.636;2024-03-06T06:04:31;15.77;;;14.60;;
80557;SDS011;69901;43.524;-5.636;2024-03-06T06:06:57;15.47;;;14.37;;
80557;SDS011;69901;43.524;-5.636;2024-03-06T06:09:22;15.30;;;14.20;;
80557;SDS011;69901;43.524;-5.636;2024-03-06T06:11:48;15.80;;;14.70;;
80557;SDS011;69901;43.524;-5.636;2024-03-06T06:14:15;15.57;;;14.48;;
80557;SDS011;69901;43.524;-5.636;2024-03-06T06:16:41;16.27;;;14.97;;
80557;SDS011;69901;43.524;-5.636;2024-03-06T06:19:07;15.57;;;14.37;;
80557;SDS011;69901;43.524;-5.636;2024-03-06T06:21:34;16.15;;;14.95;;
80557;SDS011;69901;43.524;-5.636;2024-03-06T06:24:01;15.03;;;13.93;;
80557;SDS011;69901;43.524;-5.636;2024-03-06T06:26:28;15.68;;;14.55;;
80557;SDS011;69901;43.524;-5.636;2024-03-06T06:28:54;16.20;;;14.90;;
80557;SDS011;69901;43.524;-5.636;2024-03-06T06:31:20;15.57;;;14.47;;
80557;SDS011;69901;43.524;-5.636;2024-03-06T06:33:45;15.90;;;14.70;;
80557;SDS011;69901;43.524;-5.636;2024-03-06T06:36:12;15.80;;;14.60;;
80557;SDS011;69901;43.524;-5.636;2024-03-06T06:38:38;16.00;;;14.80;;
80557;SDS011;69901;43.524;-5.636;2024-03-06T06:41:03;15.70;;;14.50;;
80557;SDS011;69901;43.524;-5.636;2024-03-06T06:43:29;15.95;;;14.75;;
80557;SDS011;69901;43.524;-5.636;2024-03-06T06:45:55;16.50;;;15.20;;
80557;SDS011;69901;43.524;-5.636;2024-03-06T06:48:21;16.70;;;15.50;;
80557;SDS011;69901;43.524;-5.636;2024-03-06T06:50:46;16.30;;;15.10;;
80557;SDS011;69901;43.524;-5.636;2024-03-06T06:53:13;16.25;;;15.05;;
80557;SDS011;69901;43.524;-5.636;2024-03-06T06:55:39;16.88;;;15.63;;
80557;SDS011;69901;43.524;-5.636;2024-03-06T06:58:04;15.73;;;14.53;;
80557;SDS011;69901;43.524;-5.636;2024-03-06T07:00:30;16.02;;;14.82;;
80557;SDS011;69901;43.524;-5.636;2024-03-06T07:02:55;16.63;;;15.37;;
80557;SDS011;69901;43.524;-5.636;2024-03-06T07:05:23;17.85;;;16.55;;
80557;SDS011;69901;43.524;-5.636;2024-03-06T07:07:49;16.83;;;15.53;;
80557;SDS011;69901;43.524;-5.636;2024-03-06T07:10:15;15.48;;;14.27;;
80557;SDS011;69901;43.524;-5.636;2024-03-06T07:12:40;15.10;;;13.90;;
80557;SDS011;69901;43.524;-5.636;2024-03-06T07:15:06;15.00;;;13.87;;
80557;SDS011;69901;43.524;-5.636;2024-03-06T07:17:31;14.98;;;13.77;;
80557;SDS011;69901;43.524;-5.636;2024-03-06T07:19:57;15.48;;;14.18;;
80557;SDS011;69901;43.524;-5.636;2024-03-06T07:22:23;15.07;;;13.97;;
80557;SDS011;69901;43.524;-5.636;2024-03-06T07:24:48;14.80;;;13.70;;
80557;SDS011;69901;43.524;-5.636;2024-03-06T07:27:14;15.93;;;14.63;;
80557;SDS011;69901;43.524;-5.636;2024-03-06T07:29:39;16.17;;;14.97;;
80557;SDS011;69901;43.524;-5.636;2024-03-06T07:32:05;16.60;;;15.40;;
80557;SDS011;69901;43.524;-5.636;2024-03-06T07:34:31;15.60;;;14.40;;
80557;SDS011;69901;43.524;-5.636;2024-03-06T07:36:57;15.77;;;14.57;;
80557;SDS011;69901;43.524;-5.636;2024-03-06T07:39:24;15.33;;;14.23;;
80557;SDS011;69901;43.524;-5.636;2024-03-06T07:41:50;16.30;;;15.00;;
80557;SDS011;69901;43.524;-5.636;2024-03-06T07:44:16;15.63;;;14.32;;
80557;SDS011;69901;43.524;-5.636;2024-03-06T07:46:41;15.03;;;13.77;;
80557;SDS011;69901;43.524;-5.636;2024-03-06T07:49:07;15.70;;;14.40;;
80557;SDS011;69901;43.524;-5.636;2024-03-06T07:51:33;15.68;;;14.38;;
80557;SDS011;69901;43.524;-5.636;2024-03-06T07:53:58;16.20;;;15.00;;
80557;SDS011;69901;43.524;-5.636;2024-03-06T07:56:25;15.10;;;13.85;;
80557;SDS011;69901;43.524;-5.636;2024-03-06T07:58:51;15.70;;;14.50;;
80557;SDS011;69901;43.524;-5.636;2024-03-06T08:01:17;15.32;;;14.13;;
80557;SDS011;69901;43.524;-5.636;2024-03-06T08:03:42;14.60;;;13.50;;
80557;SDS011;69901;43.524;-5.636;2024-03-06T08:06:09;14.93;;;13.73;;
80557;SDS011;69901;43.524;-5.636;2024-03-06T08:08:35;15.25;;;14.07;;
80557;SDS011;69901;43.524;-5.636;2024-03-06T08:11:01;16.35;;;15.00;;
80557;SDS011;69901;43.524;-5.636;2024-03-06T08:13:27;15.73;;;14.23;;
80557;SDS011;69901;43.524;-5.636;2024-03-06T08:15:54;15.15;;;13.85;;
80557;SDS011;69901;43.524;-5.636;2024-03-06T08:18:20;15.40;;;14.10;;
80557;SDS011;69901;43.524;-5.636;2024-03-06T08:20:45;14.20;;;13.07;;
80557;SDS011;69901;43.524;-5.636;2024-03-06T08:23:11;15.32;;;13.93;;
80557;SDS011;69901;43.524;-5.636;2024-03-06T08:25:36;15.00;;;13.80;;
80557;SDS011;69901;43.524;-5.636;2024-03-06T08:28:02;14.70;;;13.50;;
80557;SDS011;69901;43.524;-5.636;2024-03-06T08:30:28;14.93;;;13.60;;
80557;SDS011;69901;43.524;-5.636;2024-03-06T08:32:55;14.55;;;13.35;;
80557;SDS011;69901;43.524;-5.636;2024-03-06T08:35:21;15.10;;;13.82;;
80557;SDS011;69901;43.524;-5.636;2024-03-06T08:37:48;14.77;;;13.57;;
80557;SDS011;69901;43.524;-5.636;2024-03-06T08:40:15;14.80;;;13.50;;
80557;SDS011;69901;43.524;-5.636;2024-03-06T08:42:45;14.68;;;13.52;;
80557;SDS011;69901;43.524;-5.636;2024-03-06T08:45:15;15.50;;;14.10;;
80557;SDS011;69901;43.524;-5.636;2024-03-06T08:47:44;16.55;;;14.82;;
80557;SDS011;69901;43.524;-5.636;2024-03-06T08:50:10;15.10;;;13.80;;
80557;SDS011;69901;43.524;-5.636;2024-03-06T08:52:36;16.00;;;14.70;;
80557;SDS011;69901;43.524;-5.636;2024-03-06T08:55:02;15.60;;;14.30;;
80557;SDS011;69901;43.524;-5.636;2024-03-06T08:57:34;15.45;;;14.18;;
80557;SDS011;69901;43.524;-5.636;2024-03-06T08:59:59;15.50;;;14.13;;
80557;SDS011;69901;43.524;-5.636;2024-03-06T09:02:25;14.43;;;13.23;;
80557;SDS011;69901;43.524;-5.636;2024-03-06T09:04:51;16.92;;;13.38;;
80557;SDS011;69901;43.524;-5.636;2024-03-06T09:07:17;14.98;;;13.68;;
80557;SDS011;69901;43.524;-5.636;2024-03-06T09:09:43;15.00;;;13.47;;
80557;SDS011;69901;43.524;-5.636;2024-03-06T09:12:09;15.65;;;13.93;;
80557;SDS011;69901;43.524;-5.636;2024-03-06T09:14:39;14.55;;;13.25;;
80557;SDS011;69901;43.524;-5.636;2024-03-06T09:17:06;13.60;;;12.43;;
80557;SDS011;69901;43.524;-5.636;2024-03-06T09:19:34;14.30;;;13.13;;
80557;SDS011;69901;43.524;-5.636;2024-03-06T09:22:00;14.23;;;13.02;;
80557;SDS011;69901;43.524;-5.636;2024-03-06T09:24:26;15.13;;;13.60;;
80557;SDS011;69901;43.524;-5.636;2024-03-06T09:26:51;14.93;;;13.63;;
80557;SDS011;69901;43.524;-5.636;2024-03-06T09:29:18;14.02;;;12.73;;
80557;SDS011;69901;43.524;-5.636;2024-03-06T09:31:43;15.07;;;13.40;;
80557;SDS011;69901;43.524;-5.636;2024-03-06T09:34:11;14.25;;;12.90;;
80557;SDS011;69901;43.524;-5.636;2024-03-06T09:36:41;14.63;;;13.23;;
80557;SDS011;69901;43.524;-5.636;2024-03-06T09:39:10;14.77;;;13.60;;
80557;SDS011;69901;43.524;-5.636;2024-03-06T09:41:37;14.50;;;13.20;;
80557;SDS011;69901;43.524;-5.636;2024-03-06T09:44:06;15.07;;;13.65;;
80557;SDS011;69901;43.524;-5.636;2024-03-06T09:46:32;14.85;;;13.35;;
80557;SDS011;69901;43.524;-5.636;2024-03-06T09:48:59;14.50;;;13.23;;
80557;SDS011;69901;43.524;-5.636;2024-03-06T09:51:26;15.10;;;13.67;;
80557;SDS011;69901;43.524;-5.636;2024-03-06T09:53:52;14.27;;;13.00;;
80557;SDS011;69901;43.524;-5.636;2024-03-06T09:56:18;14.02;;;12.90;;
80557;SDS011;69901;43.524;-5.636;2024-03-06T09:58:45;14.52;;;13.32;;
80557;SDS011;69901;43.524;-5.636;2024-03-06T10:01:11;14.27;;;13.07;;
80557;SDS011;69901;43.524;-5.636;2024-03-06T10:03:38;13.80;;;12.60;;
80557;SDS011;69901;43.524;-5.636;2024-03-06T10:06:05;14.38;;;13.07;;
80557;SDS011;69901;43.524;-5.636;2024-03-06T10:08:32;14.15;;;12.82;;
80557;SDS011;69901;43.524;-5.636;2024-03-06T10:10:58;15.03;;;13.50;;
80557;SDS011;69901;43.524;-5.636;2024-03-06T10:13:26;14.50;;;13.30;;
80557;SDS011;69901;43.524;-5.636;2024-03-06T10:16:02;14.50;;;13.15;;
80557;SDS011;69901;43.524;-5.636;2024-03-06T10:18:28;15.02;;;13.73;;
80557;SDS011;69901;43.524;-5.636;2024-03-06T10:20:55;14.93;;;13.60;;
80557;SDS011;69901;43.524;-5.636;2024-03-06T10:23:21;14.65;;;13.27;;
80557;SDS011;69901;43.524;-5.636;2024-03-06T10:25:47;14.53;;;13.23;;
80557;SDS011;69901;43.524;-5.636;2024-03-06T10:28:19;14.90;;;13.50;;
80557;SDS011;69901;43.524;-5.636;2024-03-06T10:30:48;14.43;;;13.13;;
80557;SDS011;69901;43.524;-5.636;2024-03-06T10:33:14;14.48;;;13.07;;
80557;SDS011;69901;43.524;-5.636;2024-03-06T10:35:43;15.00;;;13.73;;
80557;SDS011;69901;43.524;-5.636;2024-03-06T10:38:09;15.60;;;14.23;;
80557;SDS011;69901;43.524;-5.636;2024-03-06T10:40:36;14.95;;;13.57;;
80557;SDS011;69901;43.524;-5.636;2024-03-06T10:43:04;15.05;;;13.75;;
80557;SDS011;69901;43.524;-5.636;2024-03-06T10:48:16;14.30;;;13.00;;
80557;SDS011;69901;43.524;-5.636;2024-03-06T10:50:43;15.20;;;13.80;;
80557;SDS011;69901;43.524;-5.636;2024-03-06T10:53:14;16.45;;;14.80;;
80557;SDS011;69901;43.524;-5.636;2024-03-06T10:55:43;15.70;;;14.23;;
80557;SDS011;69901;43.524;-5.636;2024-03-06T10:58:12;14.67;;;13.37;;
80557;SDS011;69901;43.524;-5.636;2024-03-06T11:00:38;15.18;;;13.85;;
80557;SDS011;69901;43.524;-5.636;2024-03-06T11:03:07;15.55;;;14.25;;
80557;SDS011;69901;43.524;-5.636;2024-03-06T11:05:35;16.15;;;14.63;;
80557;SDS011;69901;43.524;-5.636;2024-03-06T11:08:02;15.73;;;14.32;;
80557;SDS011;69901;43.524;-5.636;2024-03-06T11:10:34;15.47;;;14.17;;
80557;SDS011;69901;43.524;-5.636;2024-03-06T11:13:08;15.38;;;13.98;;
80557;SDS011;69901;43.524;-5.636;2024-03-06T11:15:46;14.68;;;13.27;;
80557;SDS011;69901;43.524;-5.636;2024-03-06T11:18:46;15.75;;;14.25;;
80557;SDS011;69901;43.524;-5.636;2024-03-06T11:23:30;14.77;;;13.48;;
80557;SDS011;69901;43.524;-5.636;2024-03-06T11:28:25;15.70;;;14.32;;
80557;SDS011;69901;43.524;-5.636;2024-03-06T11:31:07;13.67;;;12.43;;
80557;SDS011;69901;43.524;-5.636;2024-03-06T11:33:43;15.38;;;13.88;;
80557;SDS011;69901;43.524;-5.636;2024-03-06T11:39:27;14.70;;;13.20;;
80557;SDS011;69901;43.524;-5.636;2024-03-06T11:41:46;14.38;;;12.93;;
80557;SDS011;69901;43.524;-5.636;2024-03-06T11:44:17;15.00;;;13.50;;
80557;SDS011;69901;43.524;-5.636;2024-03-06T11:49:23;14.88;;;13.60;;
80557;SDS011;69901;43.524;-5.636;2024-03-06T11:51:50;15.25;;;13.88;;
80557;SDS011;69901;43.524;-5.636;2024-03-06T11:54:17;15.60;;;14.13;;
80557;SDS011;69901;43.524;-5.636;2024-03-06T11:56:51;14.70;;;13.30;;
80557;SDS011;69901;43.524;-5.636;2024-03-06T11:59:20;14.95;;;13.43;;
80557;SDS011;69901;43.524;-5.636;2024-03-06T12:01:47;14.40;;;13.13;;
80557;SDS011;69901;43.524;-5.636;2024-03-06T12:04:13;15.00;;;13.65;;
80557;SDS011;69901;43.524;-5.636;2024-03-06T12:06:38;14.73;;;13.23;;
80557;SDS011;69901;43.524;-5.636;2024-03-06T12:09:04;14.68;;;13.20;;
80557;SDS011;69901;43.524;-5.636;2024-03-06T12:11:30;14.57;;;13.20;;
80557;SDS011;69901;43.524;-5.636;2024-03-06T12:13:56;15.60;;;14.00;;
80557;SDS011;69901;43.524;-5.636;2024-03-06T12:16:22;15.82;;;14.07;;
80557;SDS011;69901;43.524;-5.636;2024-03-06T12:18:54;15.47;;;13.97;;
80557;SDS011;69901;43.524;-5.636;2024-03-06T12:21:23;15.80;;;14.20;;
80557;SDS011;69901;43.524;-5.636;2024-03-06T12:24:05;14.45;;;13.25;;
80557;SDS011;69901;43.524;-5.636;2024-03-06T12:26:32;15.00;;;13.48;;
80557;SDS011;69901;43.524;-5.636;2024-03-06T12:29:11;15.90;;;14.40;;
80557;SDS011;69901;43.524;-5.636;2024-03-06T12:31:37;16.23;;;13.35;;
80557;SDS011;69901;43.524;-5.636;2024-03-06T12:34:07;14.80;;;13.38;;
80557;SDS011;69901;43.524;-5.636;2024-03-06T12:36:34;14.10;;;12.80;;
80557;SDS011;69901;43.524;-5.636;2024-03-06T12:39:01;16.08;;;14.30;;
80557;SDS011;69901;43.524;-5.636;2024-03-06T12:41:29;16.90;;;13.60;;
80557;SDS011;69901;43.524;-5.636;2024-03-06T12:43:55;14.68;;;13.18;;
80557;SDS011;69901;43.524;-5.636;2024-03-06T12:46:22;14.77;;;13.35;;
80557;SDS011;69901;43.524;-5.636;2024-03-06T12:48:48;15.32;;;13.82;;
80557;SDS011;69901;43.524;-5.636;2024-03-06T12:51:14;14.63;;;13.17;;
80557;SDS011;69901;43.524;-5.636;2024-03-06T12:53:39;15.40;;;13.90;;
80557;SDS011;69901;43.524;-5.636;2024-03-06T12:56:06;15.65;;;14.15;;
80557;SDS011;69901;43.524;-5.636;2024-03-06T12:58:32;15.07;;;13.80;;
80557;SDS011;69901;43.524;-5.636;2024-03-06T13:01:00;15.90;;;14.30;;
80557;SDS011;69901;43.524;-5.636;2024-03-06T13:03:26;15.73;;;14.10;;
80557;SDS011;69901;43.524;-5.636;2024-03-06T13:05:52;14.80;;;13.27;;
80557;SDS011;69901;43.524;-5.636;2024-03-06T13:08:18;15.33;;;13.83;;
80557;SDS011;69901;43.524;-5.636;2024-03-06T13:10:43;15.30;;;14.00;;
80557;SDS011;69901;43.524;-5.636;2024-03-06T13:13:10;14.80;;;13.48;;
80557;SDS011;69901;43.524;-5.636;2024-03-06T13:15:35;14.83;;;13.53;;
80557;SDS011;69901;43.524;-5.636;2024-03-06T13:18:02;15.52;;;14.15;;
80557;SDS011;69901;43.524;-5.636;2024-03-06T13:20:30;16.58;;;13.68;;
80557;SDS011;69901;43.524;-5.636;2024-03-06T13:22:56;14.55;;;13.30;;
80557;SDS011;69901;43.524;-5.636;2024-03-06T13:25:22;14.30;;;13.10;;
80557;SDS011;69901;43.524;-5.636;2024-03-06T13:27:48;14.80;;;13.40;;
80557;SDS011;69901;43.524;-5.636;2024-03-06T13:30:13;15.97;;;13.63;;
80557;SDS011;69901;43.524;-5.636;2024-03-06T13:32:40;14.95;;;13.50;;
80557;SDS011;69901;43.524;-5.636;2024-03-06T13:35:07;14.75;;;13.35;;
80557;SDS011;69901;43.524;-5.636;2024-03-06T13:37:37;14.35;;;13.05;;
80557;SDS011;69901;43.524;-5.636;2024-03-06T13:40:06;14.23;;;12.93;;
80557;SDS011;69901;43.524;-5.636;2024-03-06T13:42:34;14.00;;;12.68;;
80557;SDS011;69901;43.524;-5.636;2024-03-06T13:45:00;14.10;;;12.90;;
80557;SDS011;69901;43.524;-5.636;2024-03-06T13:47:26;15.07;;;13.57;;
80557;SDS011;69901;43.524;-5.636;2024-03-06T13:49:52;15.20;;;13.70;;
80557;SDS011;69901;43.524;-5.636;2024-03-06T13:52:17;14.40;;;13.20;;
80557;SDS011;69901;43.524;-5.636;2024-03-06T13:54:45;15.10;;;13.60;;
80557;SDS011;69901;43.524;-5.636;2024-03-06T13:57:12;15.10;;;13.80;;
80557;SDS011;69901;43.524;-5.636;2024-03-06T13:59:38;14.02;;;12.70;;
80557;SDS011;69901;43.524;-5.636;2024-03-06T14:02:03;14.57;;;13.27;;
80557;SDS011;69901;43.524;-5.636;2024-03-06T14:04:29;14.68;;;13.27;;
80557;SDS011;69901;43.524;-5.636;2024-03-06T14:06:55;16.38;;;13.20;;
80557;SDS011;69901;43.524;-5.636;2024-03-06T14:09:22;13.50;;;12.30;;
80557;SDS011;69901;43.524;-5.636;2024-03-06T14:11:49;15.10;;;13.63;;
80557;SDS011;69901;43.524;-5.636;2024-03-06T14:14:15;19.52;;;16.48;;
80557;SDS011;69901;43.524;-5.636;2024-03-06T14:16:41;17.15;;;15.35;;
80557;SDS011;69901;43.524;-5.636;2024-03-06T14:19:07;23.38;;;18.20;;